Time;durP1;ratioP1;P1;durP2;ratioP2;P2;SDS_P1;SDS_P2;PMS_P1;PMS_P2;Temp;Humidity;BMP_temperature;BMP_pressure;BME280_temperature;BME280_humidity;BME280_pressure;Samples;Min_cycle;Max_cycle;Signal;HPM_P1;HPM_P2
2022/10/29 00:01:11;;;;;;;9.38;6.45;;;;;;;;;;4952064;29;20404;-83
2022/10/29 00:03:37;;;;;;;10.23;6.35;;;;;;;;;;4952221;28;20047;-84
2022/10/29 00:06:04;;;;;;;12.85;6.30;;;;;;;;;;4953896;28;20039;-83
2022/10/29 00:08:30;;;;;;;11.00;6.57;;;;;;;;;;4924522;29;20031;-84
2022/10/29 00:10:56;;;;;;;11.25;7.03;;;;;;;;;;4955758;28;20082;-83
2022/10/29 00:13:21;;;;;;;10.82;6.20;;;;;;;;;;4939873;28;20434;-83
2022/10/29 00:15:47;;;;;;;12.68;6.03;;;;;;;;;;4955820;28;20028;-84
2022/10/29 00:18:12;;;;;;;8.93;5.88;;;;;;;;;;4955651;29;20035;-84
2022/10/29 00:20:38;;;;;;;10.18;6.55;;;;;;;;;;4940169;29;20031;-84
2022/10/29 00:23:03;;;;;;;8.82;5.43;;;;;;;;;;4923993;28;20043;-83
2022/10/29 00:25:28;;;;;;;10.80;5.93;;;;;;;;;;4955763;29;20375;-84
2022/10/29 00:27:55;;;;;;;9.90;5.55;;;;;;;;;;4962331;28;20039;-83
2022/10/29 00:30:20;;;;;;;9.40;5.63;;;;;;;;;;4940376;29;20096;-84
2022/10/29 00:32:46;;;;;;;9.07;5.93;;;;;;;;;;4939269;29;20074;-84
2022/10/29 00:35:11;;;;;;;11.93;6.53;;;;;;;;;;4955436;28;20131;-83
2022/10/29 00:37:39;;;;;;;10.02;5.65;;;;;;;;;;4955557;29;20035;-83
2022/10/29 00:40:05;;;;;;;9.18;5.55;;;;;;;;;;4955986;28;20027;-83
2022/10/29 00:42:31;;;;;;;12.90;6.47;;;;;;;;;;4939465;29;20035;-84
2022/10/29 00:44:56;;;;;;;11.13;5.10;;;;;;;;;;4955249;28;20378;-83
2022/10/29 00:47:26;;;;;;;9.95;5.43;;;;;;;;;;4955103;29;20449;-84
2022/10/29 00:49:54;;;;;;;9.95;6.32;;;;;;;;;;4924002;29;20027;-84
2022/10/29 00:52:20;;;;;;;11.27;5.85;;;;;;;;;;4939477;29;20063;-82
2022/10/29 00:54:46;;;;;;;9.40;5.00;;;;;;;;;;4955610;28;20090;-83
2022/10/29 00:57:15;;;;;;;9.57;5.20;;;;;;;;;;4940803;29;20106;-84
2022/10/29 00:59:41;;;;;;;9.43;5.47;;;;;;;;;;4955447;28;20063;-84
2022/10/29 01:02:06;;;;;;;8.45;5.50;;;;;;;;;;4954826;29;20046;-84
2022/10/29 01:04:32;;;;;;;6.53;4.93;;;;;;;;;;4955147;28;20047;-84
2022/10/29 01:06:57;;;;;;;9.48;5.13;;;;;;;;;;4955026;29;20437;-83
2022/10/29 01:09:23;;;;;;;10.73;5.50;;;;;;;;;;4954904;29;20812;-84
2022/10/29 01:12:39;;;;;;;8.90;4.88;;;;;;;;;;4938949;29;20110;-84
2022/10/29 01:15:44;;;;;;;7.40;5.00;;;;;;;;;;4933065;29;20035;-83
2022/10/29 01:18:21;;;;;;;7.38;4.55;;;;;;;;;;4938111;29;20394;-83
2022/10/29 01:21:10;;;;;;;8.18;5.05;;;;;;;;;;4954947;29;20035;-83
2022/10/29 01:24:07;;;;;;;10.23;4.88;;;;;;;;;;4954588;28;20393;-84
2022/10/29 01:26:54;;;;;;;7.65;4.72;;;;;;;;;;4904783;29;20094;-84
2022/10/29 01:29:48;;;;;;;7.63;4.80;;;;;;;;;;4959985;28;20147;-84
2022/10/29 01:32:29;;;;;;;8.52;4.85;;;;;;;;;;4957592;28;20181;-83
2022/10/29 01:35:01;;;;;;;6.95;4.93;;;;;;;;;;4973268;28;20580;-83
2022/10/29 01:37:36;;;;;;;6.28;4.22;;;;;;;;;;4974204;28;20030;-84
2022/10/29 01:40:04;;;;;;;8.77;4.80;;;;;;;;;;4989997;28;20043;-84
2022/10/29 01:42:35;;;;;;;7.28;4.25;;;;;;;;;;4973854;28;20038;-84
2022/10/29 01:45:26;;;;;;;8.50;4.47;;;;;;;;;;4957138;28;20137;-84
2022/10/29 01:47:56;;;;;;;8.82;4.65;;;;;;;;;;4957571;28;20027;-84
2022/10/29 01:50:23;;;;;;;7.38;4.30;;;;;;;;;;4973691;28;20409;-84
2022/10/29 01:52:49;;;;;;;7.22;4.32;;;;;;;;;;4973589;28;20039;-83
2022/10/29 01:55:17;;;;;;;10.00;4.70;;;;;;;;;;4971766;28;20042;-83
2022/10/29 01:57:43;;;;;;;7.93;4.70;;;;;;;;;;4954154;29;20035;-84
2022/10/29 02:00:13;;;;;;;8.65;4.72;;;;;;;;;;4953747;29;20062;-83
2022/10/29 02:03:05;;;;;;;8.60;4.38;;;;;;;;;;4938163;29;20071;-83
2022/10/29 02:05:35;;;;;;;8.03;4.37;;;;;;;;;;4938126;29;20086;-84
2022/10/29 02:08:18;;;;;;;7.68;4.00;;;;;;;;;;4938091;29;20397;-83
2022/10/29 02:10:52;;;;;;;7.57;4.57;;;;;;;;;;4953597;29;20438;-83
2022/10/29 02:13:18;;;;;;;6.43;4.18;;;;;;;;;;4954027;28;20035;-84
2022/10/29 02:15:48;;;;;;;8.55;4.72;;;;;;;;;;4953852;29;20039;-84
2022/10/29 02:18:13;;;;;;;9.30;3.95;;;;;;;;;;4953694;28;20145;-83
2022/10/29 02:20:43;;;;;;;8.38;3.92;;;;;;;;;;4953456;29;20075;-82
2022/10/29 02:23:08;;;;;;;6.95;4.20;;;;;;;;;;4953652;28;20513;-83
2022/10/29 02:25:34;;;;;;;8.77;4.30;;;;;;;;;;4953711;29;20031;-83
2022/10/29 02:27:59;;;;;;;6.30;3.50;;;;;;;;;;4944284;28;20151;-83
2022/10/29 02:30:25;;;;;;;6.25;3.72;;;;;;;;;;4940643;28;20417;-84
2022/10/29 02:32:50;;;;;;;6.50;4.15;;;;;;;;;;4972857;28;20448;-84
2022/10/29 02:35:15;;;;;;;9.32;4.07;;;;;;;;;;4972585;28;20062;-84
2022/10/29 02:37:41;;;;;;;5.75;3.97;;;;;;;;;;4957057;28;20556;-84
2022/10/29 02:40:07;;;;;;;6.20;3.80;;;;;;;;;;4940811;28;20031;-83
2022/10/29 02:42:33;;;;;;;6.95;4.03;;;;;;;;;;4956200;28;20042;-84
2022/10/29 02:44:58;;;;;;;6.38;4.13;;;;;;;;;;4955919;28;20147;-83
2022/10/29 02:47:24;;;;;;;8.90;4.18;;;;;;;;;;4956443;28;20403;-83
2022/10/29 02:49:49;;;;;;;7.70;4.05;;;;;;;;;;4956393;28;20446;-84
2022/10/29 02:52:15;;;;;;;7.13;4.57;;;;;;;;;;4956238;28;20042;-83
2022/10/29 02:54:41;;;;;;;7.60;3.70;;;;;;;;;;4956162;28;20043;-83
2022/10/29 02:57:08;;;;;;;5.57;3.90;;;;;;;;;;4923585;29;20398;-83
2022/10/29 02:59:33;;;;;;;7.82;3.67;;;;;;;;;;4952721;29;20046;-84
2022/10/29 03:02:00;;;;;;;6.85;3.95;;;;;;;;;;4952921;29;20438;-84
2022/10/29 03:04:25;;;;;;;7.95;4.15;;;;;;;;;;4952620;28;20046;-84
2022/10/29 03:06:50;;;;;;;6.45;3.75;;;;;;;;;;4952811;29;20031;-83
2022/10/29 03:09:16;;;;;;;5.63;3.20;;;;;;;;;;4921140;29;20035;-84
2022/10/29 03:11:41;;;;;;;5.15;3.50;;;;;;;;;;4936229;29;20047;-84
2022/10/29 03:14:07;;;;;;;7.35;4.65;;;;;;;;;;4952464;28;20375;-84
2022/10/29 03:16:32;;;;;;;5.63;3.42;;;;;;;;;;4921101;29;20043;-83
2022/10/29 03:18:59;;;;;;;5.78;3.58;;;;;;;;;;4952467;29;20402;-83
2022/10/29 03:21:24;;;;;;;6.90;3.40;;;;;;;;;;4936640;29;20043;-84
2022/10/29 03:23:50;;;;;;;5.65;3.53;;;;;;;;;;4920933;29;20057;-83
2022/10/29 03:26:15;;;;;;;6.28;3.28;;;;;;;;;;4952190;29;20051;-84
2022/10/29 03:28:40;;;;;;;5.93;3.67;;;;;;;;;;4949700;28;20098;-83
2022/10/29 03:31:06;;;;;;;6.97;3.42;;;;;;;;;;4955515;28;20389;-84
2022/10/29 03:33:31;;;;;;;6.72;3.50;;;;;;;;;;4939387;28;20058;-84
2022/10/29 03:36:02;;;;;;;7.03;3.97;;;;;;;;;;4939901;28;20085;-83
2022/10/29 03:38:27;;;;;;;5.43;3.20;;;;;;;;;;4972002;28;20397;-83
2022/10/29 03:40:53;;;;;;;4.95;3.47;;;;;;;;;;4939365;28;20038;-84
2022/10/29 03:43:19;;;;;;;7.20;3.33;;;;;;;;;;4955357;28;20034;-84
2022/10/29 03:45:55;;;;;;;5.65;3.22;;;;;;;;;;4939729;28;20125;-83
2022/10/29 03:48:21;;;;;;;5.70;3.65;;;;;;;;;;4939905;28;20030;-84
2022/10/29 03:50:56;;;;;;;5.05;3.40;;;;;;;;;;4971753;28;20046;-84
2022/10/29 03:53:23;;;;;;;6.38;3.80;;;;;;;;;;4971914;28;20031;-84
2022/10/29 03:55:50;;;;;;;6.72;3.60;;;;;;;;;;4945962;29;20043;-84
2022/10/29 03:58:15;;;;;;;4.88;2.92;;;;;;;;;;4917554;29;20024;-84
2022/10/29 04:00:41;;;;;;;6.68;3.53;;;;;;;;;;4916806;29;20036;-84
2022/10/29 04:03:06;;;;;;;5.32;3.22;;;;;;;;;;4932496;29;20031;-84
2022/10/29 04:05:32;;;;;;;5.22;3.33;;;;;;;;;;4942012;28;20043;-83
2022/10/29 04:07:57;;;;;;;6.28;3.25;;;;;;;;;;4952129;29;20039;-84
2022/10/29 04:10:24;;;;;;;5.50;2.85;;;;;;;;;;4951694;29;20551;-84
2022/10/29 04:12:50;;;;;;;5.32;2.97;;;;;;;;;;4952093;29;20107;-83
2022/10/29 04:15:15;;;;;;;5.80;2.90;;;;;;;;;;4935753;29;20501;-84
2022/10/29 04:17:41;;;;;;;6.43;3.63;;;;;;;;;;4936186;29;20390;-83
2022/10/29 04:20:06;;;;;;;5.55;3.22;;;;;;;;;;4936105;29;20031;-83
2022/10/29 04:22:33;;;;;;;9.88;3.67;;;;;;;;;;4951964;29;20019;-84
2022/10/29 04:24:58;;;;;;;5.65;3.38;;;;;;;;;;4951646;28;20043;-83
2022/10/29 04:27:25;;;;;;;6.18;3.10;;;;;;;;;;4920120;29;20408;-83
2022/10/29 04:29:50;;;;;;;4.95;3.35;;;;;;;;;;4920073;29;20474;-83
2022/10/29 04:32:16;;;;;;;7.00;3.08;;;;;;;;;;4935769;29;20069;-83
2022/10/29 04:34:41;;;;;;;7.00;3.25;;;;;;;;;;4935941;29;20451;-83
2022/10/29 04:37:07;;;;;;;7.07;3.08;;;;;;;;;;4935883;29;20748;-84
2022/10/29 04:39:32;;;;;;;7.63;3.83;;;;;;;;;;4935601;29;20382;-84
2022/10/29 04:41:57;;;;;;;4.40;2.83;;;;;;;;;;4935807;29;20035;-83
2022/10/29 04:44:23;;;;;;;5.28;2.42;;;;;;;;;;4935746;29;20043;-83
2022/10/29 04:46:49;;;;;;;7.00;3.75;;;;;;;;;;4951862;29;20379;-83
2022/10/29 04:49:14;;;;;;;6.07;3.50;;;;;;;;;;4951981;29;20470;-84
2022/10/29 04:51:40;;;;;;;5.30;3.22;;;;;;;;;;4937064;29;20027;-84
2022/10/29 04:54:05;;;;;;;4.50;2.70;;;;;;;;;;4939534;29;20039;-84
2022/10/29 04:56:30;;;;;;;6.65;3.30;;;;;;;;;;4950514;28;20038;-83
2022/10/29 04:58:56;;;;;;;5.18;3.60;;;;;;;;;;4966673;28;20459;-83
2022/10/29 05:01:21;;;;;;;6.13;3.10;;;;;;;;;;4952047;29;20169;-83
2022/10/29 05:03:48;;;;;;;5.88;3.50;;;;;;;;;;4951877;28;20047;-84
2022/10/29 05:06:13;;;;;;;8.02;3.00;;;;;;;;;;4968184;28;20040;-84
2022/10/29 05:08:39;;;;;;;7.05;3.17;;;;;;;;;;4951731;29;20410;-83
2022/10/29 05:11:04;;;;;;;6.55;2.67;;;;;;;;;;4955087;29;20023;-84
2022/10/29 05:13:30;;;;;;;5.43;3.47;;;;;;;;;;4939017;29;20169;-84
2022/10/29 05:15:55;;;;;;;4.90;2.78;;;;;;;;;;4939147;29;20023;-83
2022/10/29 05:18:21;;;;;;;6.30;2.83;;;;;;;;;;4954948;29;20449;-84
2022/10/29 05:20:46;;;;;;;6.03;2.70;;;;;;;;;;4954944;29;20118;-84
2022/10/29 05:23:12;;;;;;;5.57;2.70;;;;;;;;;;4938287;28;20051;-84
2022/10/29 05:25:39;;;;;;;6.53;3.30;;;;;;;;;;4939022;29;20074;-84
2022/10/29 05:28:06;;;;;;;5.20;3.08;;;;;;;;;;4938418;29;20482;-84
2022/10/29 05:30:32;;;;;;;4.80;2.72;;;;;;;;;;4938766;29;20485;-84
2022/10/29 05:32:57;;;;;;;5.00;3.05;;;;;;;;;;4938458;29;20043;-83
2022/10/29 05:35:23;;;;;;;5.35;2.63;;;;;;;;;;4938420;29;20046;-83
2022/10/29 05:37:52;;;;;;;5.70;3.25;;;;;;;;;;4922745;29;20035;-84
2022/10/29 05:40:18;;;;;;;7.15;3.58;;;;;;;;;;4922353;29;20035;-82
2022/10/29 05:42:43;;;;;;;6.30;2.97;;;;;;;;;;4938721;29;20146;-82
2022/10/29 05:45:09;;;;;;;4.45;2.42;;;;;;;;;;4922488;29;20040;-83
2022/10/29 05:47:34;;;;;;;4.45;2.80;;;;;;;;;;4922841;29;20037;-84
2022/10/29 05:50:00;;;;;;;4.47;2.70;;;;;;;;;;4938327;29;20065;-83
2022/10/29 05:52:25;;;;;;;5.07;2.65;;;;;;;;;;4938089;29;20443;-83
2022/10/29 05:54:50;;;;;;;5.13;3.15;;;;;;;;;;4904102;29;20390;-83
2022/10/29 05:57:16;;;;;;;6.13;2.90;;;;;;;;;;4932783;29;20035;-83
2022/10/29 05:59:41;;;;;;;5.43;2.42;;;;;;;;;;4935020;29;20028;-83
2022/10/29 06:02:08;;;;;;;4.15;2.35;;;;;;;;;;4951006;29;20407;-84
2022/10/29 06:04:34;;;;;;;8.00;3.00;;;;;;;;;;4934959;29;20044;-83
2022/10/29 06:07:00;;;;;;;5.57;3.25;;;;;;;;;;4951006;29;20107;-84
2022/10/29 06:09:25;;;;;;;6.97;2.83;;;;;;;;;;4921617;29;20114;-83
2022/10/29 06:11:51;;;;;;;5.32;2.70;;;;;;;;;;4938152;29;20390;-82
2022/10/29 06:14:16;;;;;;;6.43;3.08;;;;;;;;;;4937738;29;20027;-83
2022/10/29 06:16:41;;;;;;;4.60;2.30;;;;;;;;;;4953993;29;20067;-83
2022/10/29 06:19:07;;;;;;;5.07;2.50;;;;;;;;;;4937683;29;20069;-83
2022/10/29 06:21:34;;;;;;;6.95;2.30;;;;;;;;;;4937443;29;20398;-84
2022/10/29 06:24:00;;;;;;;5.53;2.53;;;;;;;;;;4922062;29;20486;-83
2022/10/29 06:26:25;;;;;;;7.35;3.42;;;;;;;;;;4953498;29;20086;-85
2022/10/29 06:28:51;;;;;;;4.82;2.60;;;;;;;;;;4937413;29;20039;-83
2022/10/29 06:31:16;;;;;;;7.53;4.07;;;;;;;;;;4937511;29;20031;-83
2022/10/29 06:33:42;;;;;;;7.22;4.28;;;;;;;;;;4937356;29;20070;-83
2022/10/29 06:36:07;;;;;;;8.30;5.20;;;;;;;;;;4937330;29;20363;-83
2022/10/29 06:38:33;;;;;;;8.90;4.32;;;;;;;;;;4937852;29;20061;-83
2022/10/29 06:40:58;;;;;;;12.05;4.90;;;;;;;;;;4921297;29;20130;-85
2022/10/29 06:43:24;;;;;;;9.85;4.93;;;;;;;;;;4937663;29;20381;-84
2022/10/29 06:45:50;;;;;;;11.55;3.83;;;;;;;;;;4937556;29;20023;-85
2022/10/29 06:48:17;;;;;;;10.02;4.13;;;;;;;;;;4937002;29;20039;-84
2022/10/29 06:50:43;;;;;;;17.13;5.00;;;;;;;;;;4953086;29;20090;-84
2022/10/29 06:53:11;;;;;;;9.85;4.05;;;;;;;;;;4937460;28;20046;-85
2022/10/29 06:55:36;;;;;;;12.23;4.55;;;;;;;;;;4936585;29;20508;-85
2022/10/29 06:58:12;;;;;;;10.13;4.88;;;;;;;;;;4921359;29;20028;-86
2022/10/29 07:00:38;;;;;;;12.85;4.43;;;;;;;;;;4922045;29;20027;-85
2022/10/29 07:03:19;;;;;;;8.43;4.53;;;;;;;;;;5089087;27;20369;-84
2022/10/29 07:05:45;;;;;;;20.17;6.00;;;;;;;;;;5037551;28;20086;-84
2022/10/29 07:08:11;;;;;;;9.05;4.43;;;;;;;;;;5038082;28;20470;-84
2022/10/29 07:10:37;;;;;;;8.70;4.55;;;;;;;;;;5034190;28;20043;-84
2022/10/29 07:13:03;;;;;;;8.48;4.13;;;;;;;;;;5034201;28;20123;-84
2022/10/29 07:15:28;;;;;;;9.75;4.13;;;;;;;;;;5034330;28;20110;-84
2022/10/29 07:18:06;;;;;;;10.10;4.40;;;;;;;;;;5034746;28;20033;-84
2022/10/29 07:20:34;;;;;;;9.40;4.30;;;;;;;;;;5017629;28;20024;-83
2022/10/29 07:23:00;;;;;;;11.63;3.70;;;;;;;;;;5033973;28;20111;-84
2022/10/29 07:25:27;;;;;;;12.27;4.35;;;;;;;;;;5017900;28;20082;-84
2022/10/29 07:27:53;;;;;;;7.63;4.50;;;;;;;;;;5017391;28;20025;-83
2022/10/29 07:30:20;;;;;;;9.52;3.97;;;;;;;;;;5034072;28;20247;-85
2022/10/29 07:32:47;;;;;;;8.13;3.38;;;;;;;;;;5037337;28;20124;-85
2022/10/29 07:35:13;;;;;;;6.82;2.72;;;;;;;;;;5053600;28;20040;-85
2022/10/29 07:37:39;;;;;;;10.18;3.50;;;;;;;;;;5037562;28;20040;-83
2022/10/29 07:40:06;;;;;;;10.63;3.88;;;;;;;;;;5020557;28;20020;-85
2022/10/29 07:42:31;;;;;;;13.23;4.00;;;;;;;;;;5036142;28;20032;-85
2022/10/29 07:44:59;;;;;;;9.15;3.42;;;;;;;;;;5036908;28;20036;-85
2022/10/29 07:47:24;;;;;;;8.27;3.10;;;;;;;;;;5020511;28;20037;-86
2022/10/29 07:49:50;;;;;;;9.10;4.32;;;;;;;;;;5030436;28;20033;-88
2022/10/29 07:52:15;;;;;;;6.65;3.42;;;;;;;;;;5005935;28;20039;-83
2022/10/29 07:54:40;;;;;;;9.93;4.50;;;;;;;;;;5053196;28;20036;-82
2022/10/29 07:57:06;;;;;;;11.82;4.03;;;;;;;;;;5031788;28;20510;-84
2022/10/29 07:59:31;;;;;;;15.15;4.38;;;;;;;;;;5000534;28;20120;-84
2022/10/29 08:01:57;;;;;;;7.65;3.50;;;;;;;;;;5030097;28;20044;-84
2022/10/29 08:04:23;;;;;;;9.48;3.33;;;;;;;;;;5035819;28;20406;-84
2022/10/29 08:06:48;;;;;;;10.32;3.47;;;;;;;;;;5039788;28;20109;-83
2022/10/29 08:09:14;;;;;;;14.95;4.95;;;;;;;;;;5039934;28;20127;-85
2022/10/29 08:11:41;;;;;;;7.65;3.28;;;;;;;;;;5023142;28;20170;-88
2022/10/29 08:14:08;;;;;;;22.73;4.63;;;;;;;;;;4997052;28;20041;-86
2022/10/29 08:16:34;;;;;;;9.25;3.85;;;;;;;;;;4991381;28;20526;-84
2022/10/29 08:18:59;;;;;;;12.30;3.53;;;;;;;;;;4991598;28;20119;-84
2022/10/29 08:21:25;;;;;;;10.25;3.45;;;;;;;;;;5009344;28;20032;-82
2022/10/29 08:23:51;;;;;;;10.25;3.78;;;;;;;;;;5023686;28;20029;-84
2022/10/29 08:26:18;;;;;;;10.57;3.72;;;;;;;;;;5008589;28;20033;-83
2022/10/29 08:28:43;;;;;;;13.68;3.78;;;;;;;;;;5036765;28;20097;-83
2022/10/29 08:31:09;;;;;;;14.80;4.60;;;;;;;;;;5030305;28;20036;-85
2022/10/29 08:33:34;;;;;;;11.57;5.07;;;;;;;;;;5048073;28;20054;-83
2022/10/29 08:36:00;;;;;;;13.90;3.97;;;;;;;;;;5047008;28;20032;-86
2022/10/29 08:38:26;;;;;;;13.10;4.28;;;;;;;;;;5032215;28;20469;-82
2022/10/29 08:41:14;;;;;;;13.27;3.88;;;;;;;;;;5048659;28;20024;-81
2022/10/29 08:43:57;;;;;;;13.38;4.78;;;;;;;;;;5076237;28;20048;-83
2022/10/29 08:46:38;;;;;;;12.10;3.95;;;;;;;;;;5075805;28;20043;-86
2022/10/29 08:49:05;;;;;;;17.67;4.47;;;;;;;;;;5060019;28;20025;-86
2022/10/29 08:51:38;;;;;;;12.85;4.20;;;;;;;;;;5027683;28;20036;-85
2022/10/29 08:54:10;;;;;;;14.68;3.53;;;;;;;;;;5043333;28;20042;-86
2022/10/29 08:56:37;;;;;;;12.50;4.15;;;;;;;;;;5042714;28;20032;-86
2022/10/29 08:59:09;;;;;;;10.77;3.60;;;;;;;;;;5026392;28;20059;-86
2022/10/29 09:01:35;;;;;;;;;;;;;;;;;;5043433;28;20051;-86
2022/10/29 09:04:02;;;;;;;6.90;3.22;;;;;;;;;;5059410;28;19912;-86
2022/10/29 09:07:16;;;;;;;10.98;3.40;;;;;;;;;;5043087;28;20066;-86
2022/10/29 09:09:49;;;;;;;13.05;3.78;;;;;;;;;;4970306;28;20040;-87
2022/10/29 09:12:40;;;;;;;13.88;3.47;;;;;;;;;;5026381;28;20039;-87
2022/10/29 09:15:35;;;;;;;11.68;3.88;;;;;;;;;;5042373;28;20032;-86
2022/10/29 09:18:25;;;;;;;12.65;4.15;;;;;;;;;;5008625;28;20450;-87
2022/10/29 09:20:58;;;;;;;13.10;4.03;;;;;;;;;;5076043;28;20024;-86
2022/10/29 09:23:42;;;;;;;10.73;3.78;;;;;;;;;;5043420;28;20390;-85
2022/10/29 09:26:13;;;;;;;10.05;3.90;;;;;;;;;;5041411;28;20056;-87
2022/10/29 09:28:42;;;;;;;7.63;3.30;;;;;;;;;;5028898;28;20040;-86
2022/10/29 09:31:19;;;;;;;11.30;3.28;;;;;;;;;;5039108;28;20028;-86
2022/10/29 09:33:47;;;;;;;9.48;2.88;;;;;;;;;;5024369;28;20397;-87
2022/10/29 09:36:17;;;;;;;11.00;3.15;;;;;;;;;;5022698;28;20024;-86
2022/10/29 09:38:57;;;;;;;14.57;3.60;;;;;;;;;;5022684;28;20115;-85
2022/10/29 09:41:32;;;;;;;8.35;2.92;;;;;;;;;;5023384;28;20016;-86
2022/10/29 09:44:01;;;;;;;8.35;3.75;;;;;;;;;;5021979;28;20119;-87
2022/10/29 09:46:46;;;;;;;9.00;2.90;;;;;;;;;;5029738;28;20037;-86
2022/10/29 09:49:30;;;;;;;7.30;3.10;;;;;;;;;;5075493;28;20067;-86
2022/10/29 09:52:19;;;;;;;11.20;4.15;;;;;;;;;;5058722;28;20023;-86
2022/10/29 09:54:47;;;;;;;8.80;2.83;;;;;;;;;;5041808;28;20425;-86
2022/10/29 09:57:19;;;;;;;8.35;3.58;;;;;;;;;;5041675;28;20028;-86
2022/10/29 10:00:00;;;;;;;7.70;2.70;;;;;;;;;;5025450;28;20123;-86
2022/10/29 10:02:37;;;;;;;11.25;3.47;;;;;;;;;;5041570;28;20024;-86
2022/10/29 10:05:12;;;;;;;6.65;3.47;;;;;;;;;;5025349;28;20110;-86
2022/10/29 10:08:05;;;;;;;5.30;2.78;;;;;;;;;;5041705;28;20024;-86
2022/10/29 10:10:35;;;;;;;5.97;2.70;;;;;;;;;;5044125;28;20081;-86
2022/10/29 10:13:02;;;;;;;10.35;3.05;;;;;;;;;;5025251;28;20084;-85
2022/10/29 10:15:30;;;;;;;10.27;2.65;;;;;;;;;;5041460;28;20035;-85
2022/10/29 10:18:00;;;;;;;6.65;3.33;;;;;;;;;;5041574;28;20023;-85
2022/10/29 10:20:25;;;;;;;6.70;3.20;;;;;;;;;;5041587;28;20474;-85
2022/10/29 10:22:50;;;;;;;5.05;2.70;;;;;;;;;;5074578;28;20040;-86
2022/10/29 10:25:36;;;;;;;6.47;2.50;;;;;;;;;;5041003;28;20032;-85
2022/10/29 10:28:30;;;;;;;13.30;3.00;;;;;;;;;;5028770;28;20029;-86
2022/10/29 10:31:13;;;;;;;7.72;2.38;;;;;;;;;;5034696;28;20028;-85
2022/10/29 10:33:52;;;;;;;8.23;3.17;;;;;;;;;;5014632;28;20395;-86
2022/10/29 10:36:19;;;;;;;7.97;3.15;;;;;;;;;;5000425;28;20075;-86
2022/10/29 10:38:56;;;;;;;5.85;2.92;;;;;;;;;;5000430;28;20032;-85
2022/10/29 10:41:33;;;;;;;7.00;3.03;;;;;;;;;;5001304;28;20044;-85
2022/10/29 10:44:03;;;;;;;5.95;2.55;;;;;;;;;;5001490;28;20025;-85
2022/10/29 10:46:48;;;;;;;6.88;2.80;;;;;;;;;;5016882;28;20394;-85
2022/10/29 10:49:33;;;;;;;6.00;2.78;;;;;;;;;;5017709;28;20037;-85
2022/10/29 10:51:59;;;;;;;7.28;2.85;;;;;;;;;;5017946;28;20112;-85
2022/10/29 10:54:24;;;;;;;6.78;2.70;;;;;;;;;;5017306;28;20195;-86
2022/10/29 10:57:15;;;;;;;5.15;2.50;;;;;;;;;;5032711;28;20029;-85
2022/10/29 11:00:02;;;;;;;7.47;2.55;;;;;;;;;;5010352;28;20037;-85
2022/10/29 11:02:46;;;;;;;5.18;2.75;;;;;;;;;;5018591;28;20064;-85
2022/10/29 11:05:18;;;;;;;4.60;2.55;;;;;;;;;;5017493;28;20090;-85
2022/10/29 11:08:09;;;;;;;6.50;2.38;;;;;;;;;;5017560;28;20029;-87
2022/10/29 11:10:46;;;;;;;8.95;3.17;;;;;;;;;;5009856;28;20040;-84
2022/10/29 11:13:15;;;;;;;9.65;3.22;;;;;;;;;;5032997;28;20033;-84
2022/10/29 11:15:51;;;;;;;10.13;4.10;;;;;;;;;;5017008;28;20102;-84
2022/10/29 11:18:36;;;;;;;6.72;3.22;;;;;;;;;;5000794;28;20029;-84
2022/10/29 11:21:12;;;;;;;11.55;3.58;;;;;;;;;;5016848;28;20474;-83
2022/10/29 11:24:11;;;;;;;8.05;3.72;;;;;;;;;;5017276;28;20041;-83
2022/10/29 11:26:50;;;;;;;10.75;3.60;;;;;;;;;;5016194;28;20123;-84
2022/10/29 11:29:36;;;;;;;10.18;4.05;;;;;;;;;;5017062;28;20549;-84
2022/10/29 11:32:05;;;;;;;12.75;3.75;;;;;;;;;;5017149;28;20495;-83
2022/10/29 11:34:36;;;;;;;10.52;3.83;;;;;;;;;;5033311;28;20116;-84
2022/10/29 11:37:31;;;;;;;8.57;3.63;;;;;;;;;;5033231;28;20400;-84
2022/10/29 11:40:03;;;;;;;10.35;4.25;;;;;;;;;;5028196;28;20118;-83
2022/10/29 11:42:28;;;;;;;;;;;;;;;;;;5017298;28;20558;-83
2022/10/29 11:44:54;;;;;;;6.82;3.28;;;;;;;;;;5016878;28;19952;-83
2022/10/29 11:47:26;;;;;;;11.45;4.65;;;;;;;;;;5016619;28;20040;-84
2022/10/29 11:50:13;;;;;;;13.80;3.72;;;;;;;;;;5003867;28;20025;-83
2022/10/29 11:52:46;;;;;;;8.43;3.63;;;;;;;;;;5020863;28;20102;-83
2022/10/29 11:55:19;;;;;;;10.77;3.55;;;;;;;;;;5003471;28;20037;-84
2022/10/29 11:57:45;;;;;;;;;;;;;;;;;;5004254;28;20376;-85
2022/10/29 12:00:17;;;;;;;11.90;4.80;;;;;;;;;;5036242;28;19912;-84
2022/10/29 12:03:11;;;;;;;12.50;4.30;;;;;;;;;;5004568;28;20376;-86
2022/10/29 12:05:43;;;;;;;10.88;4.05;;;;;;;;;;5004993;28;20036;-85
2022/10/29 12:08:24;;;;;;;10.98;3.67;;;;;;;;;;5003956;28;20572;-85
2022/10/29 12:11:05;;;;;;;13.48;5.03;;;;;;;;;;5047512;28;20675;-86
2022/10/29 12:13:48;;;;;;;15.15;5.05;;;;;;;;;;5039276;28;20447;-84
2022/10/29 12:16:32;;;;;;;16.95;5.10;;;;;;;;;;5038374;28;20032;-85
2022/10/29 12:19:01;;;;;;;11.30;3.95;;;;;;;;;;5038750;28;20047;-84
2022/10/29 12:21:36;;;;;;;11.43;3.85;;;;;;;;;;5039580;28;20028;-85
2022/10/29 12:24:19;;;;;;;16.70;5.28;;;;;;;;;;5022778;28;20421;-85
2022/10/29 12:26:51;;;;;;;10.32;4.60;;;;;;;;;;5022548;28;20040;-85
2022/10/29 12:29:19;;;;;;;8.32;3.58;;;;;;;;;;5023335;28;20036;-84
2022/10/29 12:31:49;;;;;;;13.93;4.90;;;;;;;;;;5056266;28;20075;-85
2022/10/29 12:34:48;;;;;;;9.88;4.55;;;;;;;;;;5039534;28;20035;-85
2022/10/29 12:37:21;;;;;;;10.55;3.65;;;;;;;;;;5039603;28;20028;-85
2022/10/29 12:39:50;;;;;;;19.83;3.92;;;;;;;;;;5023526;28;20039;-85
2022/10/29 12:42:24;;;;;;;12.65;5.15;;;;;;;;;;5023068;28;20039;-85
2022/10/29 12:45:19;;;;;;;13.15;4.80;;;;;;;;;;5023035;28;20033;-83
2022/10/29 12:47:47;;;;;;;15.80;4.20;;;;;;;;;;5007477;28;20032;-84
2022/10/29 12:50:34;;;;;;;12.82;4.05;;;;;;;;;;5023207;28;20509;-84
2022/10/29 12:53:02;;;;;;;9.23;4.15;;;;;;;;;;5055486;28;20490;-85
2022/10/29 12:55:28;;;;;;;9.85;4.07;;;;;;;;;;5022869;28;20103;-84
2022/10/29 12:57:54;;;;;;;6.55;3.05;;;;;;;;;;5006318;28;20107;-84
2022/10/29 13:00:23;;;;;;;8.80;3.67;;;;;;;;;;5022515;28;20043;-84
2022/10/29 13:02:50;;;;;;;16.10;4.22;;;;;;;;;;5038973;28;20494;-85
2022/10/29 13:05:36;;;;;;;10.52;3.38;;;;;;;;;;5022822;28;20108;-85
2022/10/29 13:08:03;;;;;;;7.45;3.70;;;;;;;;;;5038722;28;20048;-85
2022/10/29 13:10:31;;;;;;;7.43;3.20;;;;;;;;;;5035393;28;20036;-84
2022/10/29 13:13:15;;;;;;;8.75;4.03;;;;;;;;;;5019004;28;20029;-84
2022/10/29 13:16:12;;;;;;;5.97;3.10;;;;;;;;;;5019106;28;20121;-85
2022/10/29 13:18:38;;;;;;;5.78;2.80;;;;;;;;;;5001358;28;20384;-85
2022/10/29 13:21:03;;;;;;;9.45;3.53;;;;;;;;;;5018621;28;20040;-85
2022/10/29 13:23:33;;;;;;;7.22;3.55;;;;;;;;;;5002374;28;20037;-84
2022/10/29 13:26:01;;;;;;;7.72;3.38;;;;;;;;;;5002554;28;20518;-85
2022/10/29 13:28:28;;;;;;;8.52;3.67;;;;;;;;;;5033729;28;20028;-85
2022/10/29 13:31:02;;;;;;;6.60;3.70;;;;;;;;;;5075177;28;20108;-85
2022/10/29 13:33:28;;;;;;;10.73;3.33;;;;;;;;;;5058472;28;20024;-84
2022/10/29 13:36:15;;;;;;;9.13;3.45;;;;;;;;;;5058496;28;20035;-84
2022/10/29 13:38:50;;;;;;;10.52;3.70;;;;;;;;;;5058328;28;20036;-84
2022/10/29 13:41:18;;;;;;;9.40;3.25;;;;;;;;;;5075107;28;20028;-85
2022/10/29 13:44:04;;;;;;;8.88;3.55;;;;;;;;;;5058428;28;20024;-85
2022/10/29 13:46:49;;;;;;;11.90;3.63;;;;;;;;;;5026651;28;20028;-85
2022/10/29 13:49:17;;;;;;;8.30;3.65;;;;;;;;;;5058150;28;20032;-85
2022/10/29 13:52:04;;;;;;;9.38;3.30;;;;;;;;;;5041538;28;20073;-85
2022/10/29 13:54:46;;;;;;;9.93;3.45;;;;;;;;;;5057654;28;20052;-85
2022/10/29 13:57:12;;;;;;;10.07;3.17;;;;;;;;;;5041004;28;20039;-84
2022/10/29 13:59:44;;;;;;;9.98;3.10;;;;;;;;;;5057887;28;20621;-85
2022/10/29 14:02:18;;;;;;;10.23;2.88;;;;;;;;;;5041672;28;20040;-85
2022/10/29 14:04:47;;;;;;;9.13;3.90;;;;;;;;;;5041245;28;20046;-85
2022/10/29 14:07:18;;;;;;;7.63;3.60;;;;;;;;;;5025001;28;20035;-84
2022/10/29 14:09:53;;;;;;;6.75;2.92;;;;;;;;;;4991176;28;20032;-84
2022/10/29 14:12:21;;;;;;;8.48;3.55;;;;;;;;;;5004335;28;20110;-84
2022/10/29 14:15:07;;;;;;;6.38;3.05;;;;;;;;;;5020830;28;20033;-84
2022/10/29 14:17:33;;;;;;;7.88;3.58;;;;;;;;;;5037440;28;20020;-84
2022/10/29 14:19:59;;;;;;;8.02;3.22;;;;;;;;;;5020758;28;20028;-84
2022/10/29 14:22:32;;;;;;;5.90;2.78;;;;;;;;;;5021254;28;20029;-84
2022/10/29 14:24:58;;;;;;;6.45;2.92;;;;;;;;;;5021426;28;20051;-84
2022/10/29 14:27:23;;;;;;;7.15;2.88;;;;;;;;;;5004484;28;20056;-84
2022/10/29 14:29:49;;;;;;;8.82;2.88;;;;;;;;;;5021098;28;20067;-84
2022/10/29 14:32:17;;;;;;;5.97;3.05;;;;;;;;;;5021047;28;20430;-84
2022/10/29 14:34:44;;;;;;;6.22;2.88;;;;;;;;;;5020637;28;20020;-85
2022/10/29 14:37:16;;;;;;;11.23;3.60;;;;;;;;;;5021341;28;20035;-84
2022/10/29 14:39:52;;;;;;;7.82;3.47;;;;;;;;;;5037291;28;20040;-84
2022/10/29 14:42:20;;;;;;;7.32;3.38;;;;;;;;;;5020614;28;20017;-84
2022/10/29 14:44:47;;;;;;;7.90;3.25;;;;;;;;;;5020804;28;20028;-83
2022/10/29 14:47:22;;;;;;;9.57;3.22;;;;;;;;;;5017472;28;20475;-84
2022/10/29 14:49:48;;;;;;;7.32;2.88;;;;;;;;;;5000840;28;20391;-85
2022/10/29 14:52:41;;;;;;;10.57;3.38;;;;;;;;;;5017391;28;20059;-84
2022/10/29 14:55:07;;;;;;;9.65;3.47;;;;;;;;;;5002655;28;20388;-83
2022/10/29 14:57:34;;;;;;;9.45;2.63;;;;;;;;;;5016927;28;20032;-83
2022/10/29 15:00:01;;;;;;;10.98;3.33;;;;;;;;;;5017455;28;20044;-83
2022/10/29 15:02:34;;;;;;;7.78;3.85;;;;;;;;;;5000843;28;20059;-84